Time;durP1;ratioP1;P1;durP2;ratioP2;P2;SDS_P1;SDS_P2;PMS_P1;PMS_P2;Temp;Humidity;BMP_temperature;BMP_pressure;BME280_temperature;BME280_humidity;BME280_pressure;Samples;Min_cycle;Max_cycle;Signal;HPM_P1;HPM_P2
2022/02/15 00:00:41;;;;;;;;;;;23.50;27.40;;;;;;494204;241;1130;-73
2022/02/15 00:02:43;;;;;;;;;;;23.40;27.40;;;;;;494283;241;1104;-73
2022/02/15 00:04:44;;;;;;;;;;;23.40;27.40;;;;;;494225;241;987;-73
2022/02/15 00:06:45;;;;;;;;;;;23.30;27.50;;;;;;494184;241;1158;-73
2022/02/15 00:08:47;;;;;;;;;;;23.30;27.60;;;;;;494389;241;1070;-73
2022/02/15 00:10:48;;;;;;;;;;;23.20;27.70;;;;;;494204;241;1210;-73
2022/02/15 00:12:49;;;;;;;;;;;23.10;27.70;;;;;;494136;241;2103;-73
2022/02/15 00:14:51;;;;;;;;;;;23.00;27.80;;;;;;494213;241;977;-73
2022/02/15 00:16:52;;;;;;;;;;;22.90;27.90;;;;;;494185;241;1157;-74
2022/02/15 00:18:53;;;;;;;;;;;22.90;27.90;;;;;;494176;241;1056;-73
2022/02/15 00:20:55;;;;;;;;;;;22.80;28.00;;;;;;494203;241;1235;-73
2022/02/15 00:22:56;;;;;;;;;;;22.70;28.10;;;;;;494269;241;1063;-73
2022/02/15 00:24:57;;;;;;;;;;;22.60;28.10;;;;;;494273;241;1135;-73
2022/02/15 00:26:59;;;;;;;;;;;22.50;28.30;;;;;;494274;241;1172;-73
2022/02/15 00:29:01;;;;;;;;;;;22.50;28.30;;;;;;494384;241;1080;-73
2022/02/15 00:31:01;;;;;;;;;;;22.50;28.30;;;;;;494128;241;1464;-73
2022/02/15 00:33:03;;;;;;;;;;;22.60;28.20;;;;;;494239;241;2135;-73
2022/02/15 00:35:04;;;;;;;;;;;22.70;28.20;;;;;;494227;241;1113;-73
2022/02/15 00:37:05;;;;;;;;;;;22.80;28.20;;;;;;494086;241;1480;-73
2022/02/15 00:39:09;;;;;;;;;;;22.70;28.20;;;;;;494315;241;1269;-73
2022/02/15 00:41:08;;;;;;;;;;;22.70;28.20;;;;;;494188;241;1417;-73
2022/02/15 00:43:09;;;;;;;;;;;22.80;28.10;;;;;;494135;241;1037;-73
2022/02/15 00:45:11;;;;;;;;;;;22.80;28.20;;;;;;494200;241;935;-73
2022/02/15 00:47:12;;;;;;;;;;;22.80;28.20;;;;;;494252;241;1096;-73
2022/02/15 00:49:13;;;;;;;;;;;22.80;28.20;;;;;;494196;241;1087;-73
2022/02/15 00:51:15;;;;;;;;;;;22.80;28.20;;;;;;494223;241;1219;-73
2022/02/15 00:53:16;;;;;;;;;;;22.90;28.20;;;;;;494249;241;2139;-73
2022/02/15 00:55:17;;;;;;;;;;;23.00;28.00;;;;;;494327;241;1221;-73
2022/02/15 00:57:18;;;;;;;;;;;23.10;27.90;;;;;;494148;241;1067;-73
2022/02/15 00:59:20;;;;;;;;;;;23.10;27.90;;;;;;494203;241;988;-73
2022/02/15 01:01:21;;;;;;;;;;;23.20;27.80;;;;;;494271;241;1147;-73
2022/02/15 01:03:22;;;;;;;;;;;23.30;27.80;;;;;;494333;241;1127;-73
2022/02/15 01:05:24;;;;;;;;;;;23.30;27.70;;;;;;494232;241;1082;-73
2022/02/15 01:07:25;;;;;;;;;;;23.40;27.70;;;;;;494206;241;1120;-73
2022/02/15 01:09:26;;;;;;;;;;;23.50;27.70;;;;;;494305;241;1012;-73
2022/02/15 01:11:28;;;;;;;;;;;23.50;27.60;;;;;;494198;241;1237;-73
2022/02/15 01:13:29;;;;;;;;;;;23.50;27.70;;;;;;494273;241;2186;-73
2022/02/15 01:15:31;;;;;;;;;;;23.50;27.80;;;;;;494212;241;1197;-73
2022/02/15 01:17:32;;;;;;;;;;;23.40;27.80;;;;;;494226;241;1152;-74
2022/02/15 01:19:33;;;;;;;;;;;23.20;27.80;;;;;;494243;241;949;-73
2022/02/15 01:21:34;;;;;;;;;;;23.10;28.00;;;;;;494185;241;1205;-73
2022/02/15 01:23:36;;;;;;;;;;;23.00;28.10;;;;;;494242;241;945;-73
2022/02/15 01:25:37;;;;;;;;;;;23.00;28.20;;;;;;494232;241;1315;-73
2022/02/15 01:27:38;;;;;;;;;;;22.80;28.20;;;;;;494316;241;1039;-73
2022/02/15 01:29:40;;;;;;;;;;;22.80;28.30;;;;;;494233;241;1008;-73
2022/02/15 01:31:41;;;;;;;;;;;22.80;28.30;;;;;;494149;241;1204;-73
2022/02/15 01:33:42;;;;;;;;;;;22.80;28.30;;;;;;494198;241;2108;-73
2022/02/15 01:35:44;;;;;;;;;;;22.70;28.40;;;;;;494205;241;1144;-73
2022/02/15 01:37:45;;;;;;;;;;;22.80;28.40;;;;;;494315;241;1195;-73
2022/02/15 01:39:46;;;;;;;;;;;22.70;28.40;;;;;;494258;241;1025;-73
2022/02/15 01:41:48;;;;;;;;;;;22.70;28.40;;;;;;494188;241;1198;-73
2022/02/15 01:43:49;;;;;;;;;;;22.80;28.40;;;;;;494229;241;1010;-73
2022/02/15 01:45:50;;;;;;;;;;;22.70;28.40;;;;;;494369;241;1122;-73
2022/02/15 01:47:52;;;;;;;;;;;22.80;28.50;;;;;;494275;241;1111;-73
2022/02/15 01:49:53;;;;;;;;;;;22.80;28.40;;;;;;494221;241;1078;-73
2022/02/15 01:51:55;;;;;;;;;;;22.70;28.40;;;;;;494147;241;1176;-73
2022/02/15 01:53:56;;;;;;;;;;;22.80;28.40;;;;;;494191;241;2196;-73
2022/02/15 01:55:57;;;;;;;;;;;22.80;28.30;;;;;;494192;241;1206;-73
2022/02/15 01:57:59;;;;;;;;;;;22.80;28.40;;;;;;494269;241;1109;-73
2022/02/15 02:00:00;;;;;;;;;;;22.80;28.30;;;;;;494278;241;1055;-73
2022/02/15 02:02:01;;;;;;;;;;;22.80;28.40;;;;;;494172;241;1227;-73
2022/02/15 02:04:03;;;;;;;;;;;22.90;28.30;;;;;;494300;241;1183;-73
2022/02/15 02:06:04;;;;;;;;;;;22.90;28.30;;;;;;494274;241;1308;-73
2022/02/15 02:08:05;;;;;;;;;;;23.00;28.20;;;;;;494354;241;1073;-73
2022/02/15 02:10:07;;;;;;;;;;;23.20;28.10;;;;;;494224;241;954;-73
2022/02/15 02:12:08;;;;;;;;;;;23.30;28.10;;;;;;494213;241;1213;-73
2022/02/15 02:14:09;;;;;;;;;;;23.50;28.00;;;;;;494220;241;2115;-73
2022/02/15 02:16:11;;;;;;;;;;;23.30;27.90;;;;;;494302;241;1149;-73
2022/02/15 02:18:12;;;;;;;;;;;23.40;28.00;;;;;;494328;241;1065;-73
2022/02/15 02:20:13;;;;;;;;;;;23.40;28.00;;;;;;494248;241;929;-73
2022/02/15 02:22:15;;;;;;;;;;;23.40;28.00;;;;;;494267;241;1035;-73
2022/02/15 02:24:16;;;;;;;;;;;23.40;28.10;;;;;;494234;241;955;-73
2022/02/15 02:26:17;;;;;;;;;;;23.30;28.10;;;;;;494174;241;1318;-73
2022/02/15 02:28:19;;;;;;;;;;;23.20;28.20;;;;;;494282;241;1089;-73
2022/02/15 02:30:20;;;;;;;;;;;23.20;28.30;;;;;;494257;241;1019;-73
2022/02/15 02:32:22;;;;;;;;;;;23.00;28.30;;;;;;494245;241;1040;-73
2022/02/15 02:34:23;;;;;;;;;;;23.00;28.40;;;;;;494192;241;2186;-73
2022/02/15 02:36:24;;;;;;;;;;;22.90;28.50;;;;;;494294;241;1190;-73
2022/02/15 02:38:26;;;;;;;;;;;22.80;28.60;;;;;;494270;241;990;-73
2022/02/15 02:40:27;;;;;;;;;;;22.80;28.60;;;;;;494254;241;1031;-73
2022/02/15 02:42:28;;;;;;;;;;;22.60;28.80;;;;;;494228;241;1161;-73
2022/02/15 02:44:30;;;;;;;;;;;22.60;28.90;;;;;;494229;241;1009;-73
2022/02/15 02:46:31;;;;;;;;;;;22.50;28.90;;;;;;494195;241;1191;-73
2022/02/15 02:48:32;;;;;;;;;;;22.50;28.90;;;;;;494267;241;929;-73
2022/02/15 02:50:34;;;;;;;;;;;22.50;29.00;;;;;;494232;241;973;-73
2022/02/15 02:52:35;;;;;;;;;;;22.50;29.00;;;;;;494365;241;1167;-73
2022/02/15 02:54:36;;;;;;;;;;;22.50;29.00;;;;;;494249;241;2182;-73
2022/02/15 02:56:38;;;;;;;;;;;22.60;29.00;;;;;;494237;241;1205;-73
2022/02/15 02:58:39;;;;;;;;;;;22.60;29.00;;;;;;494267;241;933;-73
2022/02/15 03:00:40;;;;;;;;;;;22.70;28.90;;;;;;494258;241;1094;-73
2022/02/15 03:02:42;;;;;;;;;;;22.70;28.90;;;;;;494271;241;1141;-73
2022/02/15 03:04:43;;;;;;;;;;;22.70;28.90;;;;;;494279;241;946;-73
2022/02/15 03:06:44;;;;;;;;;;;22.80;28.90;;;;;;494234;241;1122;-73
2022/02/15 03:08:46;;;;;;;;;;;22.80;28.90;;;;;;494344;241;1014;-73
2022/02/15 03:10:47;;;;;;;;;;;22.80;28.90;;;;;;494222;241;1097;-73
2022/02/15 03:12:48;;;;;;;;;;;22.80;28.80;;;;;;494256;241;1150;-73
2022/02/15 03:14:49;;;;;;;;;;;22.90;28.80;;;;;;494287;241;2175;-73
2022/02/15 03:16:51;;;;;;;;;;;23.00;28.80;;;;;;494366;241;1180;-74
2022/02/15 03:18:52;;;;;;;;;;;23.00;28.80;;;;;;494241;241;939;-73
2022/02/15 03:20:53;;;;;;;;;;;23.00;28.80;;;;;;494273;241;1163;-73
2022/02/15 03:22:55;;;;;;;;;;;23.10;28.80;;;;;;494353;241;1072;-73
2022/02/15 03:24:56;;;;;;;;;;;23.10;28.70;;;;;;494290;241;1039;-73
2022/02/15 03:26:58;;;;;;;;;;;23.20;28.70;;;;;;494329;241;1380;-73
2022/02/15 03:28:59;;;;;;;;;;;23.20;28.60;;;;;;494261;241;940;-73
2022/02/15 03:31:00;;;;;;;;;;;23.30;28.60;;;;;;494226;241;1192;-73
2022/02/15 03:33:02;;;;;;;;;;;23.40;28.60;;;;;;494293;241;1000;-73
2022/02/15 03:35:03;;;;;;;;;;;23.30;28.60;;;;;;494245;241;2182;-73
2022/02/15 03:37:04;;;;;;;;;;;23.30;28.60;;;;;;494166;241;1136;-73
2022/02/15 03:39:06;;;;;;;;;;;23.30;28.70;;;;;;494200;241;960;-74
2022/02/15 03:43:27;;;;;;;;;;;23.00;28.90;;;;;;478479;241;1449;-73
2022/02/15 03:45:29;;;;;;;;;;;22.90;29.00;;;;;;494256;241;1166;-73
2022/02/15 03:47:30;;;;;;;;;;;22.80;29.20;;;;;;494175;241;1084;-73
2022/02/15 03:49:31;;;;;;;;;;;22.70;29.30;;;;;;494432;241;1070;-73
2022/02/15 03:51:33;;;;;;;;;;;22.70;29.40;;;;;;494146;241;1203;-73
2022/02/15 03:53:34;;;;;;;;;;;22.70;29.40;;;;;;494202;241;993;-73
2022/02/15 03:55:36;;;;;;;;;;;22.60;29.40;;;;;;494219;241;2175;-73
2022/02/15 03:57:37;;;;;;;;;;;22.60;29.50;;;;;;494240;241;1115;-73
2022/02/15 03:59:38;;;;;;;;;;;22.40;29.70;;;;;;494263;241;956;-73
2022/02/15 04:01:39;;;;;;;;;;;22.40;29.70;;;;;;494292;241;1166;-74
2022/02/15 04:03:41;;;;;;;;;;;22.50;29.70;;;;;;494197;241;1126;-73
2022/02/15 04:05:42;;;;;;;;;;;22.50;29.60;;;;;;494269;241;1189;-73
2022/02/15 04:07:43;;;;;;;;;;;22.60;29.60;;;;;;494159;241;1223;-73
2022/02/15 04:09:45;;;;;;;;;;;22.70;29.50;;;;;;494197;241;1240;-73
2022/02/15 04:11:46;;;;;;;;;;;22.60;29.60;;;;;;494133;241;1161;-73
2022/02/15 04:13:47;;;;;;;;;;;22.60;29.50;;;;;;494216;241;2202;-73
2022/02/15 04:15:49;;;;;;;;;;;22.70;29.50;;;;;;494205;241;1219;-73
2022/02/15 04:17:50;;;;;;;;;;;22.60;29.60;;;;;;494094;241;1015;-73
2022/02/15 04:19:51;;;;;;;;;;;22.60;29.60;;;;;;494212;241;1078;-73
2022/02/15 04:21:53;;;;;;;;;;;22.60;29.60;;;;;;494208;241;1112;-73
2022/02/15 04:23:54;;;;;;;;;;;22.60;29.60;;;;;;494182;241;953;-73
2022/02/15 04:25:55;;;;;;;;;;;22.70;29.70;;;;;;494188;241;1249;-73
2022/02/15 04:27:57;;;;;;;;;;;22.80;29.50;;;;;;494353;241;1193;-74
2022/02/15 04:29:58;;;;;;;;;;;22.90;29.50;;;;;;494270;241;1325;-73
2022/02/15 04:31:59;;;;;;;;;;;22.90;29.40;;;;;;494192;241;1193;-73
2022/02/15 04:34:01;;;;;;;;;;;22.90;29.40;;;;;;494209;241;2194;-73
2022/02/15 04:36:02;;;;;;;;;;;23.00;29.30;;;;;;494214;241;1213;-73
2022/02/15 04:38:03;;;;;;;;;;;23.10;29.30;;;;;;494164;241;1125;-73
2022/02/15 04:40:05;;;;;;;;;;;23.10;29.30;;;;;;494155;241;1027;-73
2022/02/15 04:42:06;;;;;;;;;;;23.00;29.30;;;;;;494281;241;1106;-73
2022/02/15 04:44:07;;;;;;;;;;;23.10;29.40;;;;;;494223;241;1014;-73
2022/02/15 04:46:09;;;;;;;;;;;23.00;29.40;;;;;;494240;241;1295;-73
2022/02/15 04:48:10;;;;;;;;;;;23.00;29.50;;;;;;494159;241;946;-73
2022/02/15 04:50:11;;;;;;;;;;;23.00;29.50;;;;;;494200;241;1021;-73
2022/02/15 04:52:13;;;;;;;;;;;22.90;29.50;;;;;;494152;241;1110;-73
2022/02/15 04:54:16;;;;;;;;;;;22.80;29.60;;;;;;494224;241;2124;-73
2022/02/15 04:56:15;;;;;;;;;;;22.70;29.70;;;;;;494175;241;1345;-73
2022/02/15 04:58:17;;;;;;;;;;;22.60;29.80;;;;;;494222;241;1205;-73
2022/02/15 05:00:18;;;;;;;;;;;22.60;29.90;;;;;;494195;241;976;-73
2022/02/15 05:02:19;;;;;;;;;;;22.50;29.90;;;;;;494245;241;1090;-73
2022/02/15 05:06:40;;;;;;;;;;;22.50;30.00;;;;;;494138;241;1183;-73
2022/02/15 05:08:41;;;;;;;;;;;22.60;30.00;;;;;;494071;241;967;-73
2022/02/15 05:10:43;;;;;;;;;;;22.60;30.00;;;;;;494098;241;1034;-73
2022/02/15 05:12:44;;;;;;;;;;;22.60;30.00;;;;;;494264;241;1133;-73
2022/02/15 05:14:45;;;;;;;;;;;22.60;30.00;;;;;;494124;241;2112;-73
2022/02/15 05:16:46;;;;;;;;;;;22.60;30.00;;;;;;494085;241;1223;-73
2022/02/15 05:18:48;;;;;;;;;;;22.60;30.00;;;;;;494210;241;1068;-73
2022/02/15 05:20:49;;;;;;;;;;;22.60;30.00;;;;;;494106;241;1069;-73
2022/02/15 05:22:51;;;;;;;;;;;22.70;29.90;;;;;;493969;241;1107;-73
2022/02/15 05:24:52;;;;;;;;;;;22.70;29.90;;;;;;493985;241;1105;-73
2022/02/15 05:26:54;;;;;;;;;;;22.70;29.90;;;;;;494038;241;1181;-73
2022/02/15 05:28:55;;;;;;;;;;;22.60;29.90;;;;;;494005;241;1148;-73
2022/02/15 05:30:56;;;;;;;;;;;22.70;30.00;;;;;;494070;241;1130;-73
2022/02/15 05:32:58;;;;;;;;;;;22.60;30.00;;;;;;493992;241;1061;-73
2022/02/15 05:34:59;;;;;;;;;;;22.60;30.00;;;;;;494048;241;2194;-73
2022/02/15 05:37:00;;;;;;;;;;;22.60;30.00;;;;;;494195;241;1071;-73
2022/02/15 05:39:02;;;;;;;;;;;22.70;30.00;;;;;;493961;241;1205;-73
2022/02/15 05:41:03;;;;;;;;;;;22.80;29.90;;;;;;494021;241;1125;-73
2022/02/15 05:43:11;;;;;;;;;;;22.80;29.90;;;;;;494012;241;1095;-73
2022/02/15 05:45:06;;;;;;;;;;;22.90;29.80;;;;;;493650;241;1450;-73
2022/02/15 05:47:07;;;;;;;;;;;22.90;29.70;;;;;;493948;241;1170;-73
2022/02/15 05:49:09;;;;;;;;;;;23.00;29.70;;;;;;493903;241;1075;-73
2022/02/15 05:51:10;;;;;;;;;;;23.10;29.60;;;;;;493908;241;1188;-73
2022/02/15 05:53:11;;;;;;;;;;;23.20;29.60;;;;;;493794;241;1106;-73
2022/02/15 05:55:14;;;;;;;;;;;23.10;29.50;;;;;;493783;241;2124;-73
2022/02/15 05:57:14;;;;;;;;;;;23.30;29.50;;;;;;493761;241;1394;-73
2022/02/15 05:59:15;;;;;;;;;;;23.20;29.50;;;;;;493927;241;1166;-73
2022/02/15 06:01:17;;;;;;;;;;;23.20;29.50;;;;;;493864;241;1441;-73
2022/02/15 06:05:37;;;;;;;;;;;23.00;29.70;;;;;;493930;241;1189;-73
2022/02/15 06:07:39;;;;;;;;;;;23.00;29.80;;;;;;493867;241;1072;-73
2022/02/15 06:09:40;;;;;;;;;;;22.80;29.90;;;;;;493788;241;1098;-73
2022/02/15 06:11:41;;;;;;;;;;;22.70;30.00;;;;;;493815;241;1151;-73
2022/02/15 06:13:42;;;;;;;;;;;22.60;30.10;;;;;;494005;241;1226;-73
2022/02/15 06:15:44;;;;;;;;;;;22.60;30.20;;;;;;493808;241;2177;-73
2022/02/15 06:17:45;;;;;;;;;;;22.50;30.30;;;;;;493744;241;1095;-73
2022/02/15 06:19:46;;;;;;;;;;;22.60;30.30;;;;;;493865;241;1029;-73
2022/02/15 06:21:48;;;;;;;;;;;22.60;30.20;;;;;;493696;241;1344;-73
2022/02/15 06:23:50;;;;;;;;;;;22.50;30.30;;;;;;494008;241;1220;-73
2022/02/15 06:25:51;;;;;;;;;;;22.50;30.40;;;;;;493840;241;1331;-73
2022/02/15 06:27:52;;;;;;;;;;;22.50;30.40;;;;;;493940;241;1083;-73
2022/02/15 06:29:54;;;;;;;;;;;22.50;30.40;;;;;;493810;241;1114;-73
2022/02/15 06:31:55;;;;;;;;;;;22.40;30.40;;;;;;493698;241;1170;-73
2022/02/15 06:33:56;;;;;;;;;;;22.50;30.40;;;;;;493687;241;1038;-73
2022/02/15 06:35:58;;;;;;;;;;;22.60;30.30;;;;;;493677;241;2175;-73
2022/02/15 06:37:59;;;;;;;;;;;22.60;30.20;;;;;;493759;241;1251;-73
2022/02/15 06:40:00;;;;;;;;;;;22.60;30.20;;;;;;493791;241;1061;-73
2022/02/15 06:42:02;;;;;;;;;;;22.70;30.10;;;;;;493745;241;1110;-73
2022/02/15 06:44:04;;;;;;;;;;;22.70;30.00;;;;;;493896;241;1163;-73
2022/02/15 06:46:04;;;;;;;;;;;22.70;30.10;;;;;;493817;241;1531;-73
2022/02/15 06:48:05;;;;;;;;;;;22.70;30.10;;;;;;493777;241;1132;-73
2022/02/15 06:50:07;;;;;;;;;;;22.70;30.10;;;;;;493783;241;1026;-73
2022/02/15 06:52:08;;;;;;;;;;;22.80;30.10;;;;;;493866;241;1368;-73
2022/02/15 06:54:09;;;;;;;;;;;22.90;30.00;;;;;;493916;241;1041;-73
2022/02/15 06:56:11;;;;;;;;;;;22.90;29.90;;;;;;493708;241;2115;-73
2022/02/15 06:58:12;;;;;;;;;;;23.00;30.00;;;;;;493786;241;1135;-73
2022/02/15 07:00:13;;;;;;;;;;;23.10;29.90;;;;;;493694;241;1063;-73
2022/02/15 07:02:15;;;;;;;;;;;23.20;29.80;;;;;;493651;241;1291;-73
2022/02/15 07:04:16;;;;;;;;;;;23.30;29.70;;;;;;493542;241;1147;-73
2022/02/15 07:06:17;;;;;;;;;;;23.30;29.60;;;;;;493683;241;1375;-73
2022/02/15 07:08:19;;;;;;;;;;;23.20;29.80;;;;;;493706;241;1088;-73
2022/02/15 07:10:20;;;;;;;;;;;23.30;29.80;;;;;;493625;241;1056;-73
2022/02/15 07:12:22;;;;;;;;;;;23.10;29.80;;;;;;493755;241;1179;-74
2022/02/15 07:14:23;;;;;;;;;;;23.10;29.80;;;;;;493387;241;1368;-73
2022/02/15 07:16:24;;;;;;;;;;;23.00;30.00;;;;;;493478;241;2179;-73
2022/02/15 07:18:26;;;;;;;;;;;22.80;30.00;;;;;;493610;241;1091;-73
2022/02/15 07:20:27;;;;;;;;;;;22.70;30.20;;;;;;493593;241;981;-73
2022/02/15 07:22:28;;;;;;;;;;;22.60;30.40;;;;;;493824;241;1166;-73
2022/02/15 07:24:30;;;;;;;;;;;22.60;30.40;;;;;;493601;241;1096;-73
2022/02/15 07:26:31;;;;;;;;;;;22.60;30.40;;;;;;493579;241;1139;-73
2022/02/15 07:28:32;;;;;;;;;;;22.40;30.50;;;;;;493485;241;1133;-73
2022/02/15 07:30:35;;;;;;;;;;;22.40;30.60;;;;;;493510;241;1189;-73
2022/02/15 07:32:35;;;;;;;;;;;22.50;30.60;;;;;;493500;241;1219;-73
2022/02/15 07:34:36;;;;;;;;;;;22.50;30.60;;;;;;493479;241;1074;-73
2022/02/15 07:36:37;;;;;;;;;;;22.50;30.60;;;;;;493474;241;2186;-73
2022/02/15 07:38:39;;;;;;;;;;;22.50;30.50;;;;;;493208;241;1103;-73
2022/02/15 07:40:40;;;;;;;;;;;22.40;30.70;;;;;;493465;241;1322;-73
2022/02/15 07:42:41;;;;;;;;;;;22.40;30.60;;;;;;493726;241;1190;-73
2022/02/15 07:44:43;;;;;;;;;;;22.60;30.60;;;;;;493799;241;1102;-73
2022/02/15 07:46:46;;;;;;;;;;;22.60;30.40;;;;;;493490;241;1149;-73
2022/02/15 07:48:45;;;;;;;;;;;22.60;30.40;;;;;;493421;241;1292;-73
2022/02/15 07:50:47;;;;;;;;;;;22.60;30.40;;;;;;493349;241;1181;-73
2022/02/15 07:52:50;;;;;;;;;;;22.60;30.40;;;;;;493307;241;1101;-73
2022/02/15 07:54:50;;;;;;;;;;;22.60;30.40;;;;;;493287;241;1395;-73
2022/02/15 07:56:52;;;;;;;;;;;22.70;30.30;;;;;;493447;241;2175;-73
2022/02/15 07:58:52;;;;;;;;;;;22.70;30.30;;;;;;493409;241;1435;-73
2022/02/15 08:00:54;;;;;;;;;;;22.70;30.20;;;;;;493392;241;1204;-73
2022/02/15 08:02:55;;;;;;;;;;;22.80;30.20;;;;;;493419;241;1052;-73
2022/02/15 08:04:56;;;;;;;;;;;22.90;30.10;;;;;;493395;241;1028;-73
2022/02/15 08:06:59;;;;;;;;;;;23.00;30.00;;;;;;493374;241;1211;-73
2022/02/15 08:08:59;;;;;;;;;;;23.10;30.00;;;;;;493334;241;1315;-73
2022/02/15 08:11:00;;;;;;;;;;;23.10;30.00;;;;;;493458;241;1162;-73
2022/02/15 08:13:03;;;;;;;;;;;23.10;29.90;;;;;;493725;241;1121;-73
2022/02/15 08:15:03;;;;;;;;;;;23.10;29.90;;;;;;493255;241;1283;-73
2022/02/15 08:17:04;;;;;;;;;;;23.10;29.90;;;;;;493463;241;2100;-73
2022/02/15 08:19:06;;;;;;;;;;;23.10;30.00;;;;;;493220;241;1043;-73
2022/02/15 08:21:08;;;;;;;;;;;23.10;30.00;;;;;;493107;241;1163;-73
2022/02/15 08:23:10;;;;;;;;;;;23.00;30.00;;;;;;493073;241;1055;-73
2022/02/15 08:25:11;;;;;;;;;;;23.00;30.00;;;;;;493197;241;1039;-73
2022/02/15 08:27:14;;;;;;;;;;;23.00;30.00;;;;;;493141;241;1144;-73
2022/02/15 08:29:14;;;;;;;;;;;22.90;30.10;;;;;;493145;241;1304;-73
2022/02/15 08:31:15;;;;;;;;;;;22.80;30.20;;;;;;493022;241;1170;-73
2022/02/15 08:33:17;;;;;;;;;;;22.70;30.40;;;;;;493474;241;1072;-73
2022/02/15 08:35:19;;;;;;;;;;;22.70;30.50;;;;;;493301;241;2190;-73
2022/02/15 08:37:19;;;;;;;;;;;22.60;30.60;;;;;;493217;241;1267;-73
2022/02/15 08:39:21;;;;;;;;;;;22.60;30.60;;;;;;493014;241;1092;-73
2022/02/15 08:41:22;;;;;;;;;;;22.60;30.70;;;;;;493125;241;1183;-73
2022/02/15 08:43:23;;;;;;;;;;;22.60;30.60;;;;;;493304;241;1043;-73
2022/02/15 08:45:25;;;;;;;;;;;22.70;30.70;;;;;;493279;241;1185;-73
2022/02/15 08:47:26;;;;;;;;;;;22.60;30.60;;;;;;493390;241;1053;-73
2022/02/15 08:49:27;;;;;;;;;;;22.60;30.70;;;;;;493309;241;1030;-73
2022/02/15 08:51:29;;;;;;;;;;;22.60;30.60;;;;;;493260;241;1429;-73
2022/02/15 08:53:30;;;;;;;;;;;22.70;30.60;;;;;;493284;241;1150;-74
2022/02/15 08:55:31;;;;;;;;;;;22.60;30.70;;;;;;493212;241;2186;-73
2022/02/15 08:57:33;;;;;;;;;;;22.60;30.70;;;;;;493565;241;1040;-73
2022/02/15 08:59:34;;;;;;;;;;;22.70;30.70;;;;;;493348;241;1130;-74
2022/02/15 09:01:35;;;;;;;;;;;22.70;30.70;;;;;;493305;241;1217;-73
2022/02/15 09:03:37;;;;;;;;;;;22.70;30.60;;;;;;493166;241;1112;-73
2022/02/15 09:05:38;;;;;;;;;;;22.70;30.60;;;;;;493090;241;1041;-73
2022/02/15 09:07:39;;;;;;;;;;;22.70;30.60;;;;;;493320;241;1079;-73
2022/02/15 09:09:41;;;;;;;;;;;22.70;30.60;;;;;;493151;241;1169;-73
2022/02/15 09:11:43;;;;;;;;;;;22.80;30.50;;;;;;493095;241;1314;-73
2022/02/15 09:13:43;;;;;;;;;;;22.80;30.40;;;;;;493531;241;1217;-73
2022/02/15 09:15:45;;;;;;;;;;;22.90;30.40;;;;;;493343;241;2136;-73
2022/02/15 09:17:46;;;;;;;;;;;23.00;30.10;;;;;;493352;241;1041;-73
2022/02/15 09:19:47;;;;;;;;;;;23.10;30.10;;;;;;493160;241;1017;-73
2022/02/15 09:21:50;;;;;;;;;;;23.10;30.10;;;;;;493164;241;1210;-73
2022/02/15 09:23:51;;;;;;;;;;;23.20;30.00;;;;;;493045;241;1124;-73
2022/02/15 09:25:52;;;;;;;;;;;23.40;29.90;;;;;;493027;241;1401;-74
2022/02/15 09:27:53;;;;;;;;;;;23.30;29.90;;;;;;493236;241;1315;-73
2022/02/15 09:29:55;;;;;;;;;;;23.40;29.90;;;;;;493138;241;1146;-73
2022/02/15 09:31:56;;;;;;;;;;;23.30;29.80;;;;;;493216;241;1174;-73
2022/02/15 09:33:57;;;;;;;;;;;23.40;29.90;;;;;;493334;241;1116;-73
2022/02/15 09:35:59;;;;;;;;;;;23.40;29.80;;;;;;493391;241;2182;-74
2022/02/15 09:38:00;;;;;;;;;;;23.40;29.90;;;;;;493337;241;1176;-74
2022/02/15 09:40:01;;;;;;;;;;;23.40;29.90;;;;;;493105;241;1048;-74
2022/02/15 09:42:03;;;;;;;;;;;23.30;30.00;;;;;;493148;241;1212;-74
2022/02/15 09:44:04;;;;;;;;;;;23.30;30.00;;;;;;493541;241;1175;-74
2022/02/15 09:46:06;;;;;;;;;;;23.40;29.90;;;;;;493260;241;1262;-73
2022/02/15 09:48:07;;;;;;;;;;;23.40;29.90;;;;;;493201;241;1005;-73
2022/02/15 09:50:08;;;;;;;;;;;23.40;29.90;;;;;;493080;241;1704;-73
2022/02/15 09:52:09;;;;;;;;;;;23.40;29.90;;;;;;493078;241;1081;-73
2022/02/15 09:54:11;;;;;;;;;;;23.40;29.90;;;;;;493084;241;1088;-73
2022/02/15 09:56:12;;;;;;;;;;;23.40;29.80;;;;;;493089;241;2119;-73
2022/02/15 09:58:13;;;;;;;;;;;23.40;29.90;;;;;;493142;241;1017;-73
2022/02/15 10:00:15;;;;;;;;;;;23.40;29.80;;;;;;493088;241;1209;-73
2022/02/15 10:02:16;;;;;;;;;;;23.50;29.80;;;;;;493384;241;1189;-73
2022/02/15 10:04:18;;;;;;;;;;;23.40;29.80;;;;;;493259;241;1169;-73
2022/02/15 10:06:19;;;;;;;;;;;23.30;29.90;;;;;;493374;241;1144;-74
2022/02/15 10:08:20;;;;;;;;;;;23.30;30.00;;;;;;493493;241;1113;-74
2022/02/15 10:10:21;;;;;;;;;;;23.40;29.90;;;;;;493185;241;1010;-74
2022/02/15 10:12:24;;;;;;;;;;;23.40;29.90;;;;;;493091;241;1074;-73
2022/02/15 10:14:24;;;;;;;;;;;23.40;29.90;;;;;;493057;241;1395;-74
2022/02/15 10:16:25;;;;;;;;;;;23.40;29.90;;;;;;493070;241;2190;-74
2022/02/15 10:18:29;;;;;;;;;;;23.40;30.00;;;;;;493198;241;1086;-74
2022/02/15 10:20:28;;;;;;;;;;;23.40;29.90;;;;;;493299;241;1320;-73
2022/02/15 10:22:29;;;;;;;;;;;23.30;30.00;;;;;;493468;241;1117;-74
2022/02/15 10:24:31;;;;;;;;;;;23.30;30.00;;;;;;493276;241;1073;-73
2022/02/15 10:26:32;;;;;;;;;;;23.40;30.00;;;;;;493458;241;1194;-74
2022/02/15 10:28:33;;;;;;;;;;;23.40;29.90;;;;;;493802;241;856;-74
2022/02/15 10:30:38;;;;;;;;;;;23.50;29.90;;;;;;493745;241;1221;-74
2022/02/15 10:32:36;;;;;;;;;;;23.50;29.80;;;;;;493511;241;1310;-74
2022/02/15 10:34:37;;;;;;;;;;;23.50;29.90;;;;;;493054;241;1307;-73
2022/02/15 10:36:39;;;;;;;;;;;23.50;29.90;;;;;;493051;241;2107;-73
2022/02/15 10:38:40;;;;;;;;;;;23.60;29.80;;;;;;493753;241;1043;-74
2022/02/15 10:40:41;;;;;;;;;;;23.60;29.80;;;;;;493146;241;1144;-73
2022/02/15 10:42:43;;;;;;;;;;;23.60;29.80;;;;;;493623;241;1099;-73
2022/02/15 10:44:44;;;;;;;;;;;23.60;29.80;;;;;;493274;241;1218;-73
2022/02/15 10:46:45;;;;;;;;;;;23.70;29.80;;;;;;493334;241;1194;-73
2022/02/15 10:48:46;;;;;;;;;;;23.70;29.70;;;;;;493339;241;1034;-73
2022/02/15 10:50:48;;;;;;;;;;;23.70;29.70;;;;;;493305;241;1127;-73
2022/02/15 10:52:49;;;;;;;;;;;23.70;29.70;;;;;;493347;241;1189;-73
2022/02/15 10:54:50;;;;;;;;;;;23.80;29.60;;;;;;493162;241;1137;-74
2022/02/15 10:56:52;;;;;;;;;;;23.80;29.70;;;;;;493346;241;2198;-73
2022/02/15 10:58:53;;;;;;;;;;;23.80;29.70;;;;;;493396;241;1020;-73
2022/02/15 11:00:54;;;;;;;;;;;23.80;29.70;;;;;;493355;241;1237;-74
2022/02/15 11:02:56;;;;;;;;;;;23.80;29.70;;;;;;493713;241;1106;-74
2022/02/15 11:04:57;;;;;;;;;;;23.70;29.80;;;;;;493334;241;1181;-74
2022/02/15 11:07:04;;;;;;;;;;;23.70;29.80;;;;;;493399;241;1199;-74
2022/02/15 11:09:00;;;;;;;;;;;23.70;29.80;;;;;;493217;241;1510;-74
2022/02/15 11:11:01;;;;;;;;;;;23.70;29.80;;;;;;493359;241;1113;-74
2022/02/15 11:13:02;;;;;;;;;;;23.70;29.70;;;;;;493659;241;1176;-74
2022/02/15 11:15:04;;;;;;;;;;;23.70;29.80;;;;;;493278;241;973;-74
2022/02/15 11:17:05;;;;;;;;;;;23.70;29.80;;;;;;493296;241;2131;-74
2022/02/15 11:19:06;;;;;;;;;;;23.70;29.80;;;;;;493297;241;989;-74
2022/02/15 11:21:08;;;;;;;;;;;23.70;29.80;;;;;;493159;241;1124;-74
2022/02/15 11:23:09;;;;;;;;;;;23.60;29.90;;;;;;493164;241;1104;-75
2022/02/15 11:25:10;;;;;;;;;;;23.60;29.90;;;;;;493058;241;1105;-74
2022/02/15 11:27:12;;;;;;;;;;;23.60;29.90;;;;;;493365;241;1210;-74
2022/02/15 11:29:13;;;;;;;;;;;23.70;29.90;;;;;;493310;241;1147;-74
2022/02/15 11:31:14;;;;;;;;;;;23.50;29.90;;;;;;493346;241;1382;-74
2022/02/15 11:33:16;;;;;;;;;;;23.50;30.00;;;;;;493224;241;1025;-74
2022/02/15 11:35:18;;;;;;;;;;;23.60;30.00;;;;;;493397;241;1005;-74
2022/02/15 11:37:19;;;;;;;;;;;23.50;29.90;;;;;;493135;241;2182;-74
2022/02/15 11:39:20;;;;;;;;;;;23.60;30.00;;;;;;493318;241;1098;-74
2022/02/15 11:41:22;;;;;;;;;;;23.60;30.00;;;;;;493485;241;1164;-74
2022/02/15 11:43:23;;;;;;;;;;;23.60;30.00;;;;;;493923;241;1375;-74
2022/02/15 11:45:25;;;;;;;;;;;23.60;29.90;;;;;;493253;241;1046;-74
2022/02/15 11:47:26;;;;;;;;;;;23.60;29.90;;;;;;493237;241;1095;-74
2022/02/15 11:49:28;;;;;;;;;;;23.70;29.90;;;;;;493285;241;1053;-74
2022/02/15 11:51:29;;;;;;;;;;;23.70;29.90;;;;;;493319;241;1208;-74
2022/02/15 11:53:30;;;;;;;;;;;23.70;29.90;;;;;;493432;241;985;-74
2022/02/15 11:55:31;;;;;;;;;;;23.60;29.90;;;;;;493362;241;1322;-74
2022/02/15 11:57:33;;;;;;;;;;;23.60;30.00;;;;;;493527;241;2194;-74
2022/02/15 11:59:34;;;;;;;;;;;23.60;30.00;;;;;;493323;241;1141;-74
2022/02/15 12:01:35;;;;;;;;;;;23.60;30.00;;;;;;493421;241;1632;-74
2022/02/15 12:03:37;;;;;;;;;;;23.60;30.00;;;;;;493359;241;1285;-74